createdAt,value
2019-05-21T00:01:17.618Z,17.50
2019-05-21T00:03:46.448Z,17.50
2019-05-21T00:06:15.298Z,17.50
2019-05-21T00:08:44.157Z,17.60
2019-05-21T00:11:13.321Z,17.50
2019-05-21T00:13:42.140Z,17.50
2019-05-21T00:16:10.930Z,17.60
2019-05-21T00:18:39.671Z,17.60
2019-05-21T00:21:08.513Z,17.60
2019-05-21T00:23:37.315Z,17.60
2019-05-21T00:26:06.193Z,17.60
2019-05-21T00:28:38.852Z,17.60
2019-05-21T00:31:44.323Z,17.60
2019-05-21T00:34:49.437Z,17.60
2019-05-21T00:37:54.538Z,17.60
2019-05-21T00:40:59.558Z,17.70
2019-05-21T00:43:34.266Z,17.70
2019-05-21T00:46:03.145Z,17.70
2019-05-21T00:48:31.936Z,17.80
2019-05-21T00:51:00.761Z,17.80
2019-05-21T00:53:29.574Z,17.90
2019-05-21T00:55:58.389Z,17.90
2019-05-21T00:58:27.198Z,17.90
2019-05-21T01:00:56.049Z,17.90
2019-05-21T01:03:24.822Z,17.90
2019-05-21T01:05:53.618Z,17.80
2019-05-21T01:08:22.472Z,17.80
2019-05-21T01:10:51.243Z,17.80
2019-05-21T01:13:20.014Z,17.80
2019-05-21T01:15:48.839Z,17.80
2019-05-21T01:18:17.664Z,17.80
2019-05-21T01:20:46.458Z,17.80
2019-05-21T01:23:15.257Z,17.80
2019-05-21T01:25:44.082Z,17.70
2019-05-21T01:28:12.957Z,17.40
2019-05-21T01:30:41.823Z,17.10
2019-05-21T01:33:10.688Z,17.00
2019-05-21T01:35:39.588Z,16.90
2019-05-21T01:38:08.408Z,16.90
2019-05-21T01:40:37.179Z,16.90
2019-05-21T01:43:06.017Z,17.00
2019-05-21T01:45:34.828Z,17.10
2019-05-21T01:48:03.627Z,17.10
2019-05-21T01:50:32.457Z,17.20
2019-05-21T01:53:01.231Z,17.30
2019-05-21T01:55:30.171Z,17.30
2019-05-21T01:57:58.987Z,17.40
2019-05-21T02:00:27.834Z,17.40
2019-05-21T02:02:56.566Z,17.40
2019-05-21T02:05:32.925Z,17.50
2019-05-21T02:07:55.831Z,17.50
2019-05-21T02:10:24.615Z,17.50
2019-05-21T02:12:53.640Z,17.50
2019-05-21T02:15:22.383Z,17.40
2019-05-21T02:17:51.226Z,17.50
2019-05-21T02:20:20.102Z,17.50
2019-05-21T02:22:48.881Z,17.50
2019-05-21T02:25:17.875Z,17.60
2019-05-21T02:27:46.653Z,17.60
2019-05-21T02:30:16.734Z,17.60
2019-05-21T02:32:45.641Z,17.70
2019-05-21T02:35:14.427Z,17.70
2019-05-21T02:37:43.219Z,17.70
2019-05-21T02:40:12.664Z,17.80
2019-05-21T02:42:41.418Z,17.80
2019-05-21T02:45:10.687Z,17.80
2019-05-21T02:47:39.586Z,17.90
2019-05-21T02:50:08.892Z,17.90
2019-05-21T02:52:37.802Z,17.90
2019-05-21T02:55:07.130Z,17.90
2019-05-21T02:57:43.458Z,18.00
2019-05-21T03:00:16.807Z,18.00
2019-05-21T03:02:45.582Z,18.20
2019-05-21T03:05:14.468Z,18.60
2019-05-21T03:07:43.305Z,19.10
2019-05-21T03:10:12.170Z,19.10
2019-05-21T03:12:40.949Z,19.10
2019-05-21T03:15:09.693Z,19.00
2019-05-21T03:17:38.515Z,18.90
2019-05-21T03:20:10.773Z,18.80
2019-05-21T03:22:39.504Z,18.80
2019-05-21T03:25:08.610Z,18.70
2019-05-21T03:27:37.408Z,18.70
2019-05-21T03:30:07.519Z,18.70
2019-05-21T03:32:36.330Z,18.80
2019-05-21T03:35:06.318Z,18.80
2019-05-21T03:37:35.211Z,18.90
2019-05-21T03:40:07.336Z,19.00
2019-05-21T03:42:36.127Z,19.10
2019-05-21T03:45:07.963Z,19.30
2019-05-21T03:47:37.194Z,19.40
2019-05-21T03:50:06.659Z,19.60
2019-05-21T03:52:35.592Z,20.10
2019-05-21T03:58:32.876Z,21.60
2019-05-21T04:01:01.681Z,22.00
2019-05-21T04:03:30.440Z,21.90
2019-05-21T04:05:59.333Z,21.90
2019-05-21T04:08:28.114Z,22.50
2019-05-21T04:10:57.045Z,23.50
2019-05-21T04:13:25.903Z,24.10
2019-05-21T04:15:56.313Z,24.10
2019-05-21T04:18:29.344Z,23.70
2019-05-21T04:20:58.157Z,23.60
2019-05-21T04:23:27.312Z,23.90
2019-05-21T04:25:56.150Z,24.50
2019-05-21T04:28:24.904Z,25.00
2019-05-21T04:30:53.736Z,25.50
2019-05-21T04:33:22.544Z,26.20
2019-05-21T04:35:51.317Z,27.10
2019-05-21T04:38:20.125Z,27.80
2019-05-21T04:40:48.923Z,28.40
2019-05-21T04:43:17.725Z,29.10
2019-05-21T04:45:46.522Z,30.10
2019-05-21T04:48:15.327Z,30.80
2019-05-21T04:50:44.157Z,31.30
2019-05-21T04:53:15.863Z,31.80
2019-05-21T04:55:44.823Z,32.10
2019-05-21T04:58:13.694Z,32.50
2019-05-21T05:00:42.603Z,32.20
2019-05-21T05:03:11.447Z,31.30
2019-05-21T05:05:40.248Z,30.60
2019-05-21T05:08:09.117Z,30.80
2019-05-21T05:10:37.896Z,31.20
2019-05-21T05:13:06.724Z,32.20
2019-05-21T05:15:35.481Z,33.30
2019-05-21T05:18:04.282Z,34.30
2019-05-21T05:20:33.141Z,34.70
2019-05-21T05:23:02.039Z,34.50
2019-05-21T05:25:30.860Z,34.30
2019-05-21T05:27:59.613Z,34.70
2019-05-21T05:30:28.366Z,34.60
2019-05-21T05:32:57.177Z,34.20
2019-05-21T05:35:25.927Z,33.80
2019-05-21T05:37:54.718Z,32.90
2019-05-21T05:40:23.542Z,32.20
2019-05-21T05:42:52.332Z,31.40
2019-05-21T05:45:21.391Z,31.00
2019-05-21T05:47:50.178Z,30.80
2019-05-21T05:50:29.602Z,30.50
2019-05-21T05:52:58.839Z,30.10
2019-05-21T05:55:27.660Z,29.60
2019-05-21T05:57:56.524Z,29.30
2019-05-21T06:00:25.369Z,29.00
2019-05-21T06:02:54.147Z,28.70
2019-05-21T06:05:22.952Z,28.20
2019-05-21T06:07:59.906Z,27.70
2019-05-21T06:10:22.247Z,27.20
2019-05-21T06:12:51.052Z,26.80
2019-05-21T06:15:19.949Z,26.60
2019-05-21T06:17:48.755Z,26.50
2019-05-21T06:20:17.955Z,26.40
2019-05-21T06:22:46.787Z,26.60
2019-05-21T06:25:16.080Z,26.90
2019-05-21T06:27:44.853Z,27.30
2019-05-21T06:30:14.156Z,27.60
2019-05-21T06:32:42.908Z,27.90
2019-05-21T06:35:11.879Z,28.20
2019-05-21T06:37:40.761Z,28.60
2019-05-21T06:40:09.955Z,29.30
2019-05-21T06:42:38.835Z,30.30
2019-05-21T06:45:09.072Z,31.90
2019-05-21T06:47:37.846Z,33.90
2019-05-21T06:50:06.919Z,35.50
2019-05-21T06:52:35.795Z,36.70
2019-05-21T06:55:05.618Z,37.30
2019-05-21T06:57:34.425Z,37.70
2019-05-21T07:00:04.153Z,38.30
2019-05-21T07:02:32.944Z,38.30
2019-05-21T07:05:01.818Z,38.00
2019-05-21T07:07:30.639Z,37.80
2019-05-21T07:09:59.482Z,37.70
2019-05-21T07:12:28.230Z,37.60
2019-05-21T07:14:57.067Z,36.90
2019-05-21T07:17:25.867Z,36.00
2019-05-21T07:19:54.758Z,35.10
2019-05-21T07:22:23.546Z,34.50
2019-05-21T07:24:52.414Z,34.50
2019-05-21T07:27:21.233Z,34.10
2019-05-21T07:29:50.080Z,33.40
2019-05-21T07:32:18.859Z,32.70
2019-05-21T07:34:47.654Z,32.00
2019-05-21T07:37:16.493Z,31.40
2019-05-21T07:39:45.310Z,31.30
2019-05-21T07:42:14.135Z,31.30
2019-05-21T07:44:42.967Z,31.60
2019-05-21T07:47:11.831Z,32.00
2019-05-21T07:49:40.627Z,32.20
2019-05-21T07:52:09.479Z,32.20
2019-05-21T07:54:38.371Z,32.10
2019-05-21T07:57:07.139Z,31.70
2019-05-21T07:59:36.005Z,31.20
2019-05-21T08:02:04.964Z,30.70
2019-05-21T08:04:33.735Z,30.60
2019-05-21T08:07:02.603Z,30.50
2019-05-21T08:09:31.488Z,30.80
2019-05-21T08:12:00.264Z,31.40
2019-05-21T08:14:29.086Z,31.90
2019-05-21T08:16:57.899Z,32.80
2019-05-21T08:19:26.666Z,33.80
2019-05-21T08:21:55.495Z,34.30
2019-05-21T08:24:24.247Z,35.00
2019-05-21T08:26:53.072Z,35.50
2019-05-21T08:29:21.823Z,36.30
2019-05-21T08:31:50.613Z,36.50
2019-05-21T08:34:19.473Z,36.50
2019-05-21T08:36:48.301Z,36.50
2019-05-21T08:39:28.207Z,36.80
2019-05-21T08:41:47.573Z,36.80
2019-05-21T08:44:16.487Z,36.60
2019-05-21T08:46:45.226Z,36.40
2019-05-21T08:49:14.083Z,35.70
2019-05-21T08:51:42.997Z,34.80
2019-05-21T08:54:11.831Z,34.00
2019-05-21T08:56:40.758Z,33.40
2019-05-21T08:59:09.516Z,33.00
2019-05-21T09:01:38.338Z,32.80
2019-05-21T09:04:07.147Z,32.30
2019-05-21T09:06:35.918Z,31.80
2019-05-21T09:09:05.839Z,31.30
2019-05-21T09:11:34.693Z,31.00
2019-05-21T09:14:03.939Z,30.90
2019-05-21T09:16:33.134Z,31.00
2019-05-21T09:19:01.923Z,31.00
2019-05-21T09:21:30.727Z,31.10
2019-05-21T09:23:59.527Z,31.20
2019-05-21T09:26:28.360Z,31.50
2019-05-21T09:28:57.129Z,31.80
2019-05-21T09:31:25.972Z,32.10
2019-05-21T09:33:54.739Z,32.20
2019-05-21T09:36:25.264Z,32.10
2019-05-21T09:38:54.083Z,32.00
2019-05-21T09:41:22.968Z,31.80
2019-05-21T09:43:51.744Z,31.60
2019-05-21T09:46:20.489Z,31.30
2019-05-21T09:48:49.336Z,30.90
2019-05-21T09:51:20.124Z,30.70
2019-05-21T09:53:48.632Z,30.50
2019-05-21T09:56:34.764Z,30.50
2019-05-21T09:59:25.711Z,30.30
2019-05-21T10:01:56.168Z,30.10
2019-05-21T10:04:24.979Z,29.90
2019-05-21T10:06:53.918Z,29.90
2019-05-21T10:09:22.772Z,29.90
2019-05-21T10:11:51.602Z,29.90
2019-05-21T10:14:20.396Z,29.80
2019-05-21T10:16:49.223Z,29.70
2019-05-21T10:19:18.027Z,29.60
2019-05-21T10:21:46.837Z,29.60
2019-05-21T10:24:15.654Z,29.60
2019-05-21T10:26:44.464Z,29.60
2019-05-21T10:29:13.260Z,29.60
2019-05-21T10:31:42.015Z,29.60
2019-05-21T10:34:13.290Z,29.50
2019-05-21T10:36:41.277Z,29.40
2019-05-21T10:39:10.075Z,29.40
2019-05-21T10:41:38.898Z,29.40
2019-05-21T10:44:07.829Z,29.50
2019-05-21T10:46:36.753Z,29.60
2019-05-21T10:49:06.062Z,29.60
2019-05-21T10:51:34.930Z,29.40
2019-05-21T10:54:04.612Z,29.20
2019-05-21T10:56:46.677Z,29.00
2019-05-21T10:59:04.043Z,28.90
2019-05-21T11:01:46.587Z,28.80
2019-05-21T11:04:17.030Z,28.80
2019-05-21T11:06:47.452Z,28.80
2019-05-21T11:09:18.028Z,28.90
2019-05-21T11:11:46.915Z,29.00
2019-05-21T11:14:15.676Z,29.10
2019-05-21T11:16:44.571Z,29.20
2019-05-21T11:19:13.424Z,29.30
2019-05-21T11:21:42.244Z,29.40
2019-05-21T11:24:11.204Z,29.50
2019-05-21T11:26:40.073Z,29.60
2019-05-21T11:29:08.884Z,29.70
2019-05-21T11:31:37.726Z,29.80
2019-05-21T11:34:06.655Z,29.80
2019-05-21T11:36:35.469Z,29.90
2019-05-21T11:39:05.713Z,29.90
2019-05-21T11:41:34.640Z,29.80
2019-05-21T11:44:03.494Z,29.60
2019-05-21T11:46:33.652Z,29.50
2019-05-21T11:49:02.499Z,29.40
2019-05-21T11:51:31.235Z,29.50
2019-05-21T11:54:00.062Z,29.60
2019-05-21T11:56:28.876Z,29.50
2019-05-21T11:58:59.701Z,29.40
2019-05-21T12:01:28.605Z,29.50
2019-05-21T12:03:57.347Z,29.60
2019-05-21T12:06:26.244Z,29.60
2019-05-21T12:08:57.117Z,29.60
2019-05-21T12:11:25.529Z,29.50
2019-05-21T12:13:54.366Z,29.50
2019-05-21T12:16:23.164Z,29.50
2019-05-21T12:18:52.062Z,29.50
2019-05-21T12:21:20.838Z,29.50
2019-05-21T12:23:49.729Z,29.60
2019-05-21T12:26:18.604Z,29.60
2019-05-21T12:28:47.408Z,29.60
2019-05-21T12:31:16.313Z,29.70
2019-05-21T12:33:45.072Z,29.70
2019-05-21T12:36:13.920Z,29.70
2019-05-21T12:38:42.730Z,29.70
2019-05-21T12:41:13.666Z,29.70
2019-05-21T12:43:42.019Z,29.70
2019-05-21T12:46:10.796Z,29.80
2019-05-21T12:48:39.601Z,29.80
2019-05-21T12:51:09.261Z,29.80
2019-05-21T12:53:38.034Z,29.70
2019-05-21T12:56:06.905Z,29.60
2019-05-21T12:58:35.695Z,29.50
2019-05-21T13:01:04.526Z,29.40
2019-05-21T13:03:33.406Z,29.40
2019-05-21T13:06:02.494Z,29.40
2019-05-21T13:08:31.578Z,29.40
2019-05-21T13:11:00.386Z,29.40
2019-05-21T13:13:29.262Z,29.50
2019-05-21T13:15:58.014Z,29.50
2019-05-21T13:18:26.847Z,29.50
2019-05-21T13:20:55.767Z,29.50
2019-05-21T13:23:24.566Z,29.50
2019-05-21T13:25:53.416Z,29.50
2019-05-21T13:28:22.355Z,29.60
2019-05-21T13:30:51.161Z,29.60
2019-05-21T13:33:19.974Z,29.70
2019-05-21T13:35:48.771Z,29.80
2019-05-21T13:38:17.560Z,29.90
2019-05-21T13:40:46.531Z,30.00
2019-05-21T13:43:15.315Z,30.10
2019-05-21T13:45:44.169Z,30.20
2019-05-21T13:48:13.004Z,30.30
2019-05-21T13:50:41.818Z,30.30
2019-05-21T13:53:10.677Z,30.30
2019-05-21T13:55:39.735Z,30.20
2019-05-21T13:58:08.715Z,30.20
2019-05-21T14:00:39.116Z,30.10
2019-05-21T14:03:08.569Z,30.00
2019-05-21T14:05:38.169Z,30.00
2019-05-21T14:08:08.085Z,29.90
2019-05-21T14:10:36.922Z,29.80
2019-05-21T14:13:06.031Z,29.80
2019-05-21T14:15:34.840Z,29.80
2019-05-21T14:18:03.706Z,29.80
2019-05-21T14:20:32.674Z,29.80
2019-05-21T14:27:44.341Z,29.70
2019-05-21T14:30:09.736Z,29.80
2019-05-21T14:32:38.490Z,29.80
2019-05-21T14:35:07.667Z,29.80
2019-05-21T14:37:36.499Z,29.80
2019-05-21T14:40:07.378Z,29.70
2019-05-21T14:42:36.135Z,29.80
2019-05-21T14:45:06.999Z,29.80
2019-05-21T14:47:35.896Z,29.80
2019-05-21T14:50:07.258Z,29.80
2019-05-21T14:52:36.121Z,29.80
2019-05-21T14:55:09.890Z,29.70
2019-05-21T14:57:38.733Z,29.50
2019-05-21T15:00:11.052Z,29.40
2019-05-21T15:02:39.933Z,29.40
2019-05-21T15:05:09.334Z,29.40
2019-05-21T15:07:38.176Z,29.30
2019-05-21T15:10:06.931Z,29.40
2019-05-21T15:12:35.727Z,29.40
2019-05-21T15:15:06.556Z,29.40
2019-05-21T15:17:35.396Z,29.40
2019-05-21T15:20:08.960Z,29.30
2019-05-21T15:22:37.044Z,29.30
2019-05-21T15:25:06.646Z,29.40
2019-05-21T15:27:35.428Z,29.50
2019-05-21T15:30:05.954Z,29.50
2019-05-21T15:32:34.829Z,29.60
2019-05-21T15:35:04.447Z,29.70
2019-05-21T15:37:33.249Z,29.70
2019-05-21T15:40:02.070Z,29.70
2019-05-21T15:42:30.877Z,29.60
2019-05-21T15:44:59.769Z,29.60
2019-05-21T15:47:28.570Z,29.50
2019-05-21T15:49:57.320Z,29.40
2019-05-21T15:52:26.186Z,29.30
2019-05-21T15:54:55.146Z,29.20
2019-05-21T15:57:23.925Z,29.20
2019-05-21T15:59:52.772Z,29.20
2019-05-21T16:02:21.679Z,29.30
2019-05-21T16:04:50.524Z,29.30
2019-05-21T16:07:19.392Z,29.40
2019-05-21T16:09:48.241Z,29.50
2019-05-21T16:12:17.000Z,29.50
2019-05-21T16:14:45.894Z,29.50
2019-05-21T16:17:14.705Z,29.60
2019-05-21T16:19:43.499Z,29.70
2019-05-21T16:22:12.273Z,29.80
2019-05-21T16:24:41.123Z,29.90
2019-05-21T16:27:09.948Z,29.90
2019-05-21T16:29:38.692Z,30.00
2019-05-21T16:32:07.463Z,30.10
2019-05-21T16:34:36.365Z,30.20
2019-05-21T16:37:05.417Z,30.30
2019-05-21T16:39:34.859Z,30.40
2019-05-21T16:42:03.712Z,30.50
2019-05-21T16:44:32.561Z,30.50
2019-05-21T16:47:01.461Z,30.40
2019-05-21T16:49:30.324Z,30.20
2019-05-21T16:51:59.153Z,30.10
2019-05-21T16:54:27.996Z,29.90
2019-05-21T16:56:56.864Z,29.90
2019-05-21T16:59:25.721Z,29.80
2019-05-21T17:01:54.550Z,29.70
2019-05-21T17:04:23.313Z,29.50
2019-05-21T17:06:52.225Z,29.20
2019-05-21T17:09:21.033Z,29.00
2019-05-21T17:11:59.420Z,28.80
2019-05-21T17:14:20.296Z,28.50
2019-05-21T17:16:49.210Z,28.20
2019-05-21T17:19:18.059Z,28.00
2019-05-21T17:21:46.845Z,27.90
2019-05-21T17:24:15.634Z,27.70
2019-05-21T17:26:44.382Z,27.50
2019-05-21T17:29:13.289Z,26.10
2019-05-21T17:38:52.006Z,20.40
2019-05-21T17:41:20.858Z,20.10
2019-05-21T17:43:54.982Z,20.00
2019-05-21T17:46:23.746Z,19.80
2019-05-21T17:48:52.675Z,19.70
2019-05-21T17:51:21.486Z,19.70
2019-05-21T17:53:50.353Z,19.50
2019-05-21T17:56:19.190Z,19.10
2019-05-21T17:58:48.269Z,19.00
2019-05-21T18:01:17.823Z,18.90
2019-05-21T18:03:46.654Z,19.00
2019-05-21T18:08:47.212Z,18.90
2019-05-21T18:11:17.534Z,18.70
2019-05-21T18:13:48.125Z,18.80
2019-05-21T18:16:17.530Z,19.00
2019-05-21T18:18:47.248Z,19.00
2019-05-21T18:21:16.517Z,19.00
2019-05-21T18:23:45.340Z,19.10
2019-05-21T18:26:14.431Z,19.20
2019-05-21T18:28:43.206Z,19.30
2019-05-21T18:31:12.328Z,19.30
2019-05-21T18:33:41.137Z,19.50
2019-05-21T18:39:39.174Z,19.70
2019-05-21T18:42:21.061Z,19.90
2019-05-21T18:44:38.716Z,20.10
2019-05-21T18:47:07.678Z,20.20
2019-05-21T18:49:36.551Z,20.20
2019-05-21T18:52:05.396Z,20.20
2019-05-21T18:54:34.303Z,20.30
2019-05-21T18:57:03.078Z,20.30
2019-05-21T18:59:32.073Z,20.30
2019-05-21T19:02:04.374Z,20.30
2019-05-21T19:04:36.199Z,20.00
2019-05-21T19:13:30.605Z,19.60
2019-05-21T19:15:59.494Z,19.50
2019-05-21T19:18:28.342Z,19.40
2019-05-21T19:20:57.382Z,19.20
2019-05-21T19:23:26.269Z,19.10
2019-05-21T19:25:55.196Z,19.10
2019-05-21T19:28:24.066Z,19.20
2019-05-21T19:30:52.837Z,19.20
2019-05-21T19:33:21.751Z,19.10
2019-05-21T19:35:50.634Z,19.10
2019-05-21T19:38:19.533Z,19.10
2019-05-21T19:40:48.704Z,19.00
2019-05-21T19:43:17.499Z,19.10
2019-05-21T19:45:46.386Z,19.10
2019-05-21T19:48:15.177Z,19.10
2019-05-21T19:50:43.973Z,19.10
2019-05-21T19:53:12.805Z,19.20
2019-05-21T19:55:41.638Z,19.20
2019-05-21T19:58:10.715Z,19.30
2019-05-21T20:00:41.126Z,19.30
2019-05-21T20:03:10.044Z,19.40
2019-05-21T20:05:38.905Z,19.30
2019-05-21T20:08:07.837Z,19.30
2019-05-21T20:10:37.151Z,19.20
2019-05-21T20:13:06.085Z,19.20
2019-05-21T20:15:35.372Z,19.20
2019-05-21T20:18:07.398Z,19.20
2019-05-21T20:20:35.337Z,19.20
2019-05-21T20:23:08.286Z,19.20
2019-05-21T20:25:36.073Z,19.20
2019-05-21T20:28:06.710Z,19.10
2019-05-21T20:30:35.923Z,19.20
2019-05-21T20:33:04.737Z,19.20
2019-05-21T20:35:34.000Z,19.10
2019-05-21T20:38:03.772Z,19.10
2019-05-21T20:40:35.766Z,19.00
2019-05-21T20:43:05.630Z,19.10
2019-05-21T20:45:36.247Z,19.10
2019-05-21T20:48:06.087Z,19.10
2019-05-21T20:50:36.643Z,19.10
2019-05-21T20:53:06.653Z,19.00
2019-05-21T20:55:36.063Z,19.00
2019-05-21T20:58:05.607Z,19.00
2019-05-21T21:00:36.844Z,19.00
2019-05-21T21:03:07.561Z,19.00
2019-05-21T21:05:36.860Z,19.10
2019-05-21T21:08:07.004Z,19.10
2019-05-21T21:10:39.738Z,19.10
2019-05-21T21:13:13.659Z,19.10
2019-05-21T21:15:43.007Z,19.10
2019-05-21T21:18:22.887Z,19.10
2019-05-21T21:20:54.360Z,19.00
2019-05-21T21:23:24.711Z,18.90
2019-05-21T21:25:55.916Z,18.90
2019-05-21T21:28:24.704Z,18.80
2019-05-21T21:30:54.677Z,18.80
2019-05-21T21:33:23.808Z,18.80
2019-05-21T21:35:56.647Z,18.80
2019-05-21T21:38:27.073Z,18.80
2019-05-21T21:40:56.321Z,18.80
2019-05-21T21:43:27.185Z,18.80
2019-05-21T21:45:56.237Z,18.70
2019-05-21T21:48:25.415Z,18.70
2019-05-21T21:50:55.709Z,18.60
2019-05-21T21:53:24.563Z,18.60
2019-05-21T21:55:53.447Z,18.60
2019-05-21T21:58:22.282Z,18.50
2019-05-21T22:01:20.736Z,18.50
2019-05-21T22:03:50.174Z,18.40
2019-05-21T22:06:20.647Z,18.40
2019-05-21T22:08:49.425Z,18.40
2019-05-21T22:11:19.042Z,18.30
2019-05-21T22:13:48.534Z,18.30
2019-05-21T22:16:17.391Z,18.30
2019-05-21T22:18:46.449Z,18.20
2019-05-21T22:21:16.211Z,18.30
2019-05-21T22:23:45.356Z,18.20
2019-05-21T22:26:14.269Z,18.30
2019-05-21T22:28:43.635Z,18.20
2019-05-21T22:31:12.575Z,18.20
2019-05-21T22:33:41.428Z,18.20
2019-05-21T22:36:11.403Z,18.20
2019-05-21T22:38:40.275Z,18.20
2019-05-21T22:41:09.039Z,18.20
2019-05-21T22:43:37.919Z,18.20
2019-05-21T22:46:07.106Z,18.20
2019-05-21T22:48:35.993Z,18.30
2019-05-21T22:51:04.839Z,18.30
2019-05-21T22:53:33.637Z,18.30
2019-05-21T22:56:02.458Z,18.20
2019-05-21T22:58:31.369Z,18.20
2019-05-21T23:01:01.136Z,18.20
2019-05-21T23:03:30.401Z,18.20
2019-05-21T23:05:59.243Z,18.20
2019-05-21T23:08:28.167Z,18.20
2019-05-21T23:10:56.971Z,18.10
2019-05-21T23:13:25.727Z,18.20
2019-05-21T23:15:56.133Z,18.20
2019-05-21T23:18:24.886Z,18.20
2019-05-21T23:20:56.093Z,18.20
2019-05-21T23:23:25.770Z,18.20
2019-05-21T23:25:56.906Z,18.20
2019-05-21T23:28:25.855Z,18.20
2019-05-21T23:30:55.185Z,18.20
2019-05-21T23:33:25.619Z,18.20
2019-05-21T23:35:54.544Z,18.20
2019-05-21T23:38:23.723Z,18.20
2019-05-21T23:40:52.655Z,18.10
2019-05-21T23:43:21.756Z,18.20
2019-05-21T23:45:50.724Z,18.10
2019-05-21T23:48:19.544Z,18.10
2019-05-21T23:50:48.767Z,18.10
2019-05-21T23:53:17.634Z,18.20
2019-05-21T23:55:46.785Z,18.10
2019-05-21T23:58:15.783Z,18.20
